Time;durP1;ratioP1;P1;durP2;ratioP2;P2;SDS_P1;SDS_P2;PMS_P1;PMS_P2;Temp;Humidity;BMP_temperature;BMP_pressure;BME280_temperature;BME280_humidity;BME280_pressure;Samples;Min_cycle;Max_cycle;Signal;HPM_P1;HPM_P2
2024/03/05 00:01:40;;;;;;;16.30;7.70;;;;;;;6.53;54.33;100721.70;108615;1254;61943;-56
2024/03/05 00:04:07;;;;;;;14.80;8.20;;;;;;;6.50;54.24;100719.55;105496;1261;65783;-59
2024/03/05 00:06:37;;;;;;;15.30;6.30;;;;;;;6.46;54.24;100716.34;104294;1262;59665;-58
2024/03/05 00:09:05;;;;;;;16.10;8.60;;;;;;;6.40;54.24;100713.19;108592;1255;58979;-57
2024/03/05 00:11:33;;;;;;;15.80;7.10;;;;;;;6.34;54.34;100715.61;108626;1254;66985;-57
2024/03/05 00:14:00;;;;;;;15.80;8.40;;;;;;;6.29;54.37;100717.66;108501;1254;60827;-58
2024/03/05 00:16:28;;;;;;;20.50;8.90;;;;;;;6.21;54.42;100721.91;108557;1254;62617;-56
2024/03/05 00:18:56;;;;;;;13.90;8.00;;;;;;;6.17;54.58;100726.69;108613;1254;58985;-56
2024/03/05 00:21:23;;;;;;;15.10;7.20;;;;;;;6.12;54.61;100724.86;108585;1254;60454;-57
2024/03/05 00:23:51;;;;;;;19.50;9.40;;;;;;;6.06;54.66;100725.52;108562;1260;67654;-58
2024/03/05 00:26:20;;;;;;;13.80;7.30;;;;;;;6.04;54.86;100726.02;108593;1254;61809;-58
2024/03/05 00:28:48;;;;;;;18.10;9.60;;;;;;;6.03;54.97;100725.71;107878;1255;62533;-56
2024/03/05 00:31:15;;;;;;;17.80;7.80;;;;;;;6.00;54.88;100727.15;104202;1254;59250;-59
2024/03/05 00:33:43;;;;;;;17.00;8.70;;;;;;;5.94;54.98;100720.08;104224;1254;60466;-57
2024/03/05 00:36:10;;;;;;;20.50;8.30;;;;;;;5.91;55.13;100713.63;108560;1254;63875;-57
2024/03/05 00:38:38;;;;;;;20.30;8.40;;;;;;;5.88;55.21;100713.64;108628;1259;61818;-57
2024/03/05 00:41:06;;;;;;;14.20;5.40;;;;;;;5.90;55.22;100714.21;104524;1257;66425;-56
2024/03/05 00:43:33;;;;;;;13.30;6.20;;;;;;;5.97;55.14;100719.27;104256;1257;60616;-59
2024/03/05 00:46:01;;;;;;;13.80;5.70;;;;;;;6.01;54.93;100720.23;104254;1254;60498;-57
2024/03/05 00:48:29;;;;;;;16.50;5.50;;;;;;;6.04;54.87;100720.08;104757;1254;63731;-57
2024/03/05 00:50:56;;;;;;;15.40;7.10;;;;;;;6.08;54.95;100719.17;104255;1257;61499;-57
2024/03/05 00:53:24;;;;;;;27.80;17.90;;;;;;;6.11;54.99;100717.78;104611;1257;63856;-56
2024/03/05 00:55:51;;;;;;;14.70;7.10;;;;;;;6.10;54.93;100715.58;104217;1259;60549;-58
2024/03/05 00:58:20;;;;;;;15.80;6.90;;;;;;;6.06;54.89;100717.39;104226;1254;61144;-58
2024/03/05 01:00:48;;;;;;;16.00;7.80;;;;;;;5.99;54.90;100718.96;104280;1255;65595;-58
2024/03/05 01:03:16;;;;;;;15.70;8.00;;;;;;;5.94;54.96;100718.00;104193;1260;61515;-58
2024/03/05 01:05:44;;;;;;;17.10;8.60;;;;;;;5.90;54.94;100720.65;104207;1260;64277;-56
2024/03/05 01:08:12;;;;;;;17.00;8.20;;;;;;;5.83;54.95;100720.35;104334;1260;60546;-56
2024/03/05 01:10:41;;;;;;;15.60;7.80;;;;;;;5.73;55.05;100720.36;104334;1263;60359;-56
2024/03/05 01:13:09;;;;;;;19.30;9.10;;;;;;;5.65;55.18;100718.70;105321;1257;65162;-56
2024/03/05 01:15:36;;;;;;;17.40;9.10;;;;;;;5.59;55.24;100719.56;105364;1261;61972;-56
2024/03/05 01:18:04;;;;;;;21.30;8.90;;;;;;;5.54;55.32;100719.65;108602;1258;62546;-56
2024/03/05 01:20:32;;;;;;;16.60;8.50;;;;;;;5.51;55.56;100721.58;108616;1259;59590;-56
2024/03/05 01:22:59;;;;;;;21.90;9.00;;;;;;;5.49;55.60;100723.60;108603;1254;61178;-57
2024/03/05 01:25:28;;;;;;;18.50;10.10;;;;;;;5.44;55.57;100721.73;108616;1255;65772;-58
2024/03/05 01:27:57;;;;;;;15.30;7.90;;;;;;;5.41;55.71;100723.47;107723;1260;61510;-56
2024/03/05 01:30:25;;;;;;;19.40;9.50;;;;;;;5.38;55.84;100720.31;108608;1254;64844;-56
2024/03/05 01:32:56;;;;;;;18.60;8.70;;;;;;;5.35;55.92;100718.52;108591;1256;59088;-56
2024/03/05 01:35:24;;;;;;;14.10;7.50;;;;;;;5.34;55.99;100720.67;108653;1255;58783;-57
2024/03/05 01:37:52;;;;;;;18.70;6.60;;;;;;;5.38;55.97;100720.32;107661;1254;63723;-57
2024/03/05 01:40:19;;;;;;;13.30;5.90;;;;;;;5.45;55.93;100721.88;104241;1260;60578;-57
2024/03/05 01:42:48;;;;;;;13.70;7.00;;;;;;;5.53;55.96;100721.45;104126;1254;62544;-56
2024/03/05 01:45:18;;;;;;;14.10;5.80;;;;;;;5.60;55.94;100720.19;104248;1257;60555;-56
2024/03/05 01:47:47;;;;;;;16.30;7.10;;;;;;;5.67;55.93;100718.60;104192;1262;60484;-56
2024/03/05 01:50:15;;;;;;;13.10;6.80;;;;;;;5.70;55.72;100721.73;104272;1260;67236;-56
2024/03/05 01:52:43;;;;;;;15.00;7.60;;;;;;;5.70;55.81;100727.50;104217;1263;60623;-56
2024/03/05 01:55:13;;;;;;;15.30;7.90;;;;;;;5.69;55.90;100726.98;104668;1260;62516;-57
2024/03/05 01:57:42;;;;;;;20.80;8.80;;;;;;;5.69;55.80;100723.56;104175;1261;60345;-56
2024/03/05 02:00:11;;;;;;;18.10;7.20;;;;;;;5.67;55.67;100721.23;108665;1254;59064;-56
2024/03/05 02:02:38;;;;;;;13.90;6.30;;;;;;;5.63;55.59;100725.24;108457;1262;65563;-57
2024/03/05 02:05:08;;;;;;;14.80;6.50;;;;;;;5.59;55.50;100725.98;108552;1254;64443;-57
2024/03/05 02:07:36;;;;;;;14.90;7.50;;;;;;;5.54;55.38;100723.85;104548;1260;63838;-57
2024/03/05 02:10:07;;;;;;;15.00;8.80;;;;;;;5.49;55.47;100727.23;104277;1260;60543;-56
2024/03/05 02:12:40;;;;;;;15.20;7.80;;;;;;;5.45;55.66;100725.02;108630;1254;59216;-57
2024/03/05 02:15:11;;;;;;;16.60;7.70;;;;;;;5.40;55.84;100725.58;107340;1260;65846;-55
2024/03/05 02:17:39;;;;;;;16.90;8.20;;;;;;;5.34;55.90;100726.23;104202;1259;62440;-56
2024/03/05 02:20:09;;;;;;;19.70;8.30;;;;;;;5.30;55.97;100727.52;104232;1260;64234;-59
2024/03/05 02:22:37;;;;;;;16.10;8.40;;;;;;;5.26;56.19;100723.40;104225;1253;60491;-57
2024/03/05 02:25:05;;;;;;;21.30;9.20;;;;;;;5.24;56.31;100724.03;104152;1254;59231;-56
2024/03/05 02:27:33;;;;;;;20.70;7.60;;;;;;;5.21;56.50;100727.27;108564;1254;65196;-56
2024/03/05 02:30:02;;;;;;;18.20;9.70;;;;;;;5.20;56.61;100731.16;108632;1254;61568;-57
2024/03/05 02:32:30;;;;;;;20.50;8.60;;;;;;;5.18;56.71;100734.56;105616;1254;66712;-55
2024/03/05 02:34:58;;;;;;;14.30;5.50;;;;;;;5.23;56.73;100734.36;104159;1262;61613;-56
2024/03/05 02:37:26;;;;;;;14.80;6.70;;;;;;;5.30;56.76;100733.07;104185;1254;60489;-56
2024/03/05 02:39:54;;;;;;;13.20;6.00;;;;;;;5.39;56.87;100737.66;104308;1254;65359;-56
2024/03/05 02:42:22;;;;;;;13.30;6.00;;;;;;;5.48;56.90;100736.48;104194;1256;61198;-56
2024/03/05 02:44:50;;;;;;;17.10;6.00;;;;;;;5.58;56.99;100731.77;104218;1254;63872;-56
2024/03/05 02:47:17;;;;;;;21.90;9.50;;;;;;;5.71;56.90;100728.84;104135;1263;61760;-57
2024/03/05 02:49:45;;;;;;;13.90;8.30;;;;;;;5.74;56.79;100725.55;104351;1255;60398;-56
2024/03/05 02:52:13;;;;;;;16.60;9.00;;;;;;;5.71;56.78;100726.00;104623;1260;65006;-55
2024/03/05 02:54:41;;;;;;;26.30;9.40;;;;;;;5.70;56.79;100727.63;104204;1258;72708;-54
2024/03/05 02:57:09;;;;;;;19.80;8.70;;;;;;;5.70;56.77;100728.15;104190;1254;62567;-56
2024/03/05 02:59:36;;;;;;;20.60;9.20;;;;;;;5.68;56.74;100729.85;104121;1262;60619;-53
2024/03/05 03:02:05;;;;;;;16.80;7.80;;;;;;;5.64;56.74;100730.91;104262;1254;59903;-55
2024/03/05 03:04:32;;;;;;;20.40;8.40;;;;;;;5.62;56.65;100725.49;108600;1254;66040;-56
2024/03/05 03:07:00;;;;;;;19.80;9.80;;;;;;;5.58;56.59;100726.58;108671;1257;60287;-56
2024/03/05 03:09:28;;;;;;;16.10;7.20;;;;;;;5.53;56.60;100733.47;108554;1260;65117;-57
2024/03/05 03:11:56;;;;;;;19.10;9.10;;;;;;;5.47;56.64;100734.81;108588;1260;58260;-56
2024/03/05 03:14:24;;;;;;;19.70;9.30;;;;;;;5.44;56.76;100732.90;108624;1254;60119;-57
2024/03/05 03:16:52;;;;;;;16.30;8.30;;;;;;;5.42;56.77;100731.07;108624;1257;63722;-57
2024/03/05 03:19:19;;;;;;;19.00;9.60;;;;;;;5.41;56.85;100728.88;108029;1257;61449;-56
2024/03/05 03:21:47;;;;;;;15.40;7.70;;;;;;;5.39;56.84;100728.43;104248;1257;63841;-56
2024/03/05 03:24:15;;;;;;;23.40;8.20;;;;;;;5.37;56.86;100728.54;104285;1255;60266;-56
2024/03/05 03:26:42;;;;;;;19.30;8.50;;;;;;;5.35;56.89;100729.53;103912;1258;352414;-56
2024/03/05 03:31:10;;;;;;;15.10;6.00;;;;;;;5.03;57.91;100731.52;101435;1294;600377;-56
2024/03/05 03:33:39;;;;;;;16.10;6.00;;;;;;;5.41;57.11;100731.83;107595;1265;58656;-57
2024/03/05 03:36:07;;;;;;;17.90;7.00;;;;;;;5.54;56.96;100729.92;103521;1267;60050;-55
2024/03/05 03:38:35;;;;;;;13.40;5.70;;;;;;;5.64;56.80;100721.89;107846;1267;62180;-57
2024/03/05 03:41:05;;;;;;;15.40;6.00;;;;;;;5.75;56.69;100721.48;107982;1266;63843;-55
2024/03/05 03:43:33;;;;;;;21.30;10.70;;;;;;;5.82;56.69;100723.52;107799;1267;180081;-55
2024/03/05 03:46:00;;;;;;;24.60;9.80;;;;;;;5.86;56.58;100721.93;108042;1266;57721;-57
2024/03/05 03:48:29;;;;;;;16.30;8.40;;;;;;;5.88;56.40;100728.41;108078;1263;58722;-56
2024/03/05 03:50:56;;;;;;;14.80;7.60;;;;;;;5.88;56.23;100723.23;108762;1257;72346;-56
2024/03/05 03:53:24;;;;;;;18.80;9.10;;;;;;;5.87;56.18;100727.42;107414;1254;61677;-57
2024/03/05 03:55:52;;;;;;;16.00;8.60;;;;;;;5.86;56.20;100728.04;104379;1251;62566;-56
2024/03/05 03:58:20;;;;;;;15.30;7.90;;;;;;;5.84;56.11;100730.08;108763;1254;60671;-55
2024/03/05 04:00:49;;;;;;;18.00;8.60;;;;;;;5.84;56.09;100731.97;108827;1251;58496;-56
2024/03/05 04:03:16;;;;;;;17.90;8.10;;;;;;;5.80;55.96;100729.04;107197;1251;62967;-55
2024/03/05 04:05:44;;;;;;;20.40;10.50;;;;;;;5.72;56.09;100724.61;104340;1257;63804;-55
2024/03/05 04:08:12;;;;;;;20.20;8.70;;;;;;;5.64;56.19;100727.11;104435;1257;63828;-57
2024/03/05 04:10:40;;;;;;;20.90;11.20;;;;;;;5.58;56.23;100725.86;104358;1257;62015;-57
2024/03/05 04:13:07;;;;;;;23.20;9.80;;;;;;;5.54;56.32;100727.81;108834;1253;59146;-55
2024/03/05 04:15:35;;;;;;;19.20;9.30;;;;;;;5.49;56.38;100727.55;108886;1251;64212;-56
2024/03/05 04:18:03;;;;;;;19.00;9.40;;;;;;;5.46;56.45;100727.40;108793;1251;62394;-56
2024/03/05 04:20:30;;;;;;;22.80;9.70;;;;;;;5.44;56.54;100729.23;108830;1253;64818;-53
2024/03/05 04:22:58;;;;;;;13.30;6.30;;;;;;;5.47;56.44;100732.91;108795;1253;58906;-55
2024/03/05 04:25:30;;;;;;;16.40;6.70;;;;;;;5.54;56.38;100731.98;108038;1253;62246;-55
2024/03/05 04:28:10;;;;;;;17.20;7.70;;;;;;;5.62;56.32;100739.21;108746;1254;64586;-57
2024/03/05 04:30:39;;;;;;;16.00;6.50;;;;;;;5.70;56.39;100740.91;108780;1256;60257;-57
2024/03/05 04:33:09;;;;;;;15.50;7.50;;;;;;;5.78;56.27;100743.41;108692;1254;62857;-55
2024/03/05 04:35:37;;;;;;;13.20;8.20;;;;;;;5.86;56.25;100744.02;107734;1257;59772;-55
2024/03/05 04:38:07;;;;;;;16.00;8.40;;;;;;;5.94;56.28;100742.05;108836;1256;59933;-56
2024/03/05 04:40:35;;;;;;;15.60;7.90;;;;;;;5.98;56.11;100741.34;104898;1253;64360;-52
2024/03/05 04:43:03;;;;;;;16.90;8.50;;;;;;;5.98;55.90;100738.02;104268;1254;60282;-53
2024/03/05 04:45:33;;;;;;;16.50;7.60;;;;;;;5.94;55.74;100738.04;108565;1256;62537;-51
2024/03/05 04:48:01;;;;;;;18.80;9.50;;;;;;;5.87;55.66;100739.30;104347;1257;61031;-55
2024/03/05 04:50:28;;;;;;;17.20;8.40;;;;;;;5.82;55.67;100736.09;104966;1253;59750;-59
2024/03/05 04:52:57;;;;;;;16.00;9.00;;;;;;;5.77;55.71;100735.48;104370;1254;62934;-60
2024/03/05 04:55:26;;;;;;;19.40;9.30;;;;;;;5.73;55.75;100735.83;105083;1253;60334;-59
2024/03/05 04:57:54;;;;;;;22.10;8.80;;;;;;;5.70;55.77;100735.11;106333;1253;62504;-60
2024/03/05 05:00:23;;;;;;;19.00;8.90;;;;;;;5.68;55.73;100735.80;104193;1254;59670;-59
2024/03/05 05:02:51;;;;;;;18.60;8.90;;;;;;;5.63;55.75;100735.00;104240;1254;59729;-60
2024/03/05 05:05:24;;;;;;;20.50;9.40;;;;;;;5.57;55.73;100734.62;106161;1254;62920;-60
2024/03/05 05:07:55;;;;;;;21.10;9.20;;;;;;;5.51;55.90;100740.15;104436;1254;60321;-59
2024/03/05 05:10:22;;;;;;;18.60;9.20;;;;;;;5.45;55.95;100743.65;108774;1253;64735;-59
2024/03/05 05:12:50;;;;;;;20.90;10.50;;;;;;;5.41;56.02;100747.32;108727;1253;57935;-60
2024/03/05 05:15:18;;;;;;;18.70;7.10;;;;;;;5.42;55.93;100748.66;108775;1253;58334;-59
2024/03/05 05:17:45;;;;;;;14.20;7.30;;;;;;;5.46;55.76;100753.33;108750;1253;73111;-57
2024/03/05 05:20:15;;;;;;;17.40;8.30;;;;;;;5.48;55.75;100758.60;108719;1251;62403;-57
2024/03/05 05:22:44;;;;;;;14.10;8.10;;;;;;;5.54;55.79;100759.15;108690;1253;63918;-58
2024/03/05 05:25:16;;;;;;;13.30;6.90;;;;;;;5.61;55.70;100762.95;108727;1255;58921;-58
2024/03/05 05:27:44;;;;;;;17.90;8.60;;;;;;;5.65;55.69;100757.16;106444;1253;59666;-58
2024/03/05 05:30:15;;;;;;;18.90;9.20;;;;;;;5.67;55.60;100758.11;104357;1253;62942;-57
2024/03/05 05:32:43;;;;;;;17.90;8.80;;;;;;;5.66;55.56;100760.79;104343;1256;60364;-57
2024/03/05 05:35:11;;;;;;;28.30;8.70;;;;;;;5.62;55.48;100759.10;104422;1257;64523;-56
2024/03/05 05:37:38;;;;;;;14.30;7.10;;;;;;;5.56;55.51;100761.14;104337;1253;59635;-55
2024/03/05 05:40:10;;;;;;;19.20;9.40;;;;;;;5.48;55.62;100761.58;104421;1253;60897;-55
2024/03/05 05:42:39;;;;;;;21.00;11.10;;;;;;;5.39;55.80;100759.59;106472;1254;64617;-55
2024/03/05 05:45:11;;;;;;;19.30;9.90;;;;;;;5.34;56.01;100758.77;104331;1254;60305;-56
2024/03/05 05:47:42;;;;;;;23.40;10.50;;;;;;;5.32;56.11;100760.62;108801;1253;64637;-57
2024/03/05 05:50:19;;;;;;;23.50;12.50;;;;;;;5.30;56.13;100762.69;108640;1256;58228;-57
2024/03/05 05:52:52;;;;;;;26.10;11.10;;;;;;;5.27;56.03;100763.52;105567;1252;59364;-58
2024/03/05 05:55:22;;;;;;;18.00;8.80;;;;;;;5.31;55.92;100760.73;105188;1252;64763;-57
2024/03/05 05:57:51;;;;;;;16.20;8.50;;;;;;;5.40;55.85;100761.30;108745;1253;62708;-57
2024/03/05 06:00:24;;;;;;;19.80;8.90;;;;;;;5.52;55.81;100759.29;108854;1253;62977;-57
2024/03/05 06:02:55;;;;;;;21.40;10.20;;;;;;;5.64;55.59;100761.77;108874;1253;58321;-56
2024/03/05 06:05:28;;;;;;;18.40;8.20;;;;;;;5.74;55.36;100758.10;108774;1254;59063;-57
2024/03/05 06:07:55;;;;;;;17.30;9.10;;;;;;;5.82;55.16;100755.59;108758;1252;62928;-57
2024/03/05 06:10:23;;;;;;;17.80;10.00;;;;;;;5.87;55.01;100753.03;108798;1253;63840;-57
2024/03/05 06:12:51;;;;;;;23.40;11.40;;;;;;;5.92;54.74;100752.92;108745;1257;62582;-57
2024/03/05 06:15:18;;;;;;;18.30;9.20;;;;;;;5.97;54.48;100752.86;108777;1252;58084;-57
2024/03/05 06:17:46;;;;;;;16.90;9.40;;;;;;;6.00;54.32;100754.42;108773;1253;58396;-57
2024/03/05 06:20:14;;;;;;;19.50;10.70;;;;;;;6.04;54.10;100755.98;108781;1253;64189;-57
2024/03/05 06:22:45;;;;;;;19.20;9.10;;;;;;;6.05;53.97;100757.85;108795;1253;60376;-57
2024/03/05 06:25:16;;;;;;;21.20;9.20;;;;;;;6.04;53.92;100756.14;108245;1253;64288;-57
2024/03/05 06:27:44;;;;;;;16.20;9.40;;;;;;;6.05;53.93;100757.64;108292;1252;59337;-58
2024/03/05 06:30:17;;;;;;;20.40;11.40;;;;;;;6.08;53.82;100758.37;104352;1253;61923;-57
2024/03/05 06:32:47;;;;;;;20.30;8.80;;;;;;;6.10;53.77;100760.34;108778;1255;62943;-56
2024/03/05 06:35:26;;;;;;;17.80;8.40;;;;;;;6.12;53.63;100759.20;107248;1253;61515;-57
2024/03/05 06:37:53;;;;;;;16.90;8.50;;;;;;;6.13;53.62;100757.05;104338;1253;64546;-57
2024/03/05 06:40:22;;;;;;;19.30;8.80;;;;;;;6.12;53.52;100754.98;104362;1253;59691;-58
2024/03/05 06:42:52;;;;;;;19.80;9.00;;;;;;;6.10;53.50;100756.51;104481;1253;59680;-57
2024/03/05 06:45:27;;;;;;;17.20;8.80;;;;;;;6.09;53.48;100759.00;107959;1253;63705;-56
2024/03/05 06:48:01;;;;;;;18.90;6.60;;;;;;;6.10;53.27;100757.05;106807;1254;60258;-55
2024/03/05 06:50:36;;;;;;;12.20;5.90;;;;;;;6.20;53.19;100756.30;104379;1253;63869;-59
2024/03/05 06:58:39;;;;;;;23.70;10.60;;;;;;;6.56;52.92;100755.52;108763;1253;65010;-59
2024/03/05 07:01:09;;;;;;;18.60;10.30;;;;;;;6.65;52.81;100754.81;105601;1256;60334;-58
2024/03/05 07:03:38;;;;;;;17.30;10.10;;;;;;;6.73;52.71;100755.77;104324;1256;62549;-59
2024/03/05 07:06:07;;;;;;;28.80;20.70;;;;;;;6.80;52.59;100753.97;108770;1253;59428;-59
2024/03/05 07:08:40;;;;;;;17.60;8.60;;;;;;;6.88;52.39;100753.85;108639;1251;57702;-58
2024/03/05 07:11:09;;;;;;;17.30;10.80;;;;;;;6.94;52.25;100756.30;108820;1253;62912;-58
2024/03/05 07:13:41;;;;;;;16.50;8.40;;;;;;;6.96;51.99;100755.96;104667;1253;61999;-58
2024/03/05 07:16:15;;;;;;;21.00;9.90;;;;;;;6.94;51.83;100755.92;104434;1252;63842;-59
2024/03/05 07:18:52;;;;;;;24.00;10.10;;;;;;;6.92;51.88;100756.77;104220;1254;59746;-59
2024/03/05 07:21:21;;;;;;;19.50;11.20;;;;;;;6.90;51.88;100753.57;104261;1252;59217;-59
2024/03/05 07:23:50;;;;;;;19.30;8.80;;;;;;;6.86;51.88;100753.24;108781;1257;64203;-59
2024/03/05 07:26:19;;;;;;;15.50;8.00;;;;;;;6.84;52.00;100752.87;106989;1254;60319;-60
2024/03/05 07:28:47;;;;;;;17.30;8.50;;;;;;;6.81;51.80;100755.63;104318;1257;63816;-60
2024/03/05 07:31:16;;;;;;;17.40;8.20;;;;;;;6.76;51.73;100761.20;104312;1253;59663;-58
2024/03/05 07:33:45;;;;;;;20.50;9.40;;;;;;;6.70;51.86;100759.56;104330;1253;59873;-59
2024/03/05 07:36:17;;;;;;;18.50;9.40;;;;;;;6.67;51.92;100757.64;104332;1251;62921;-59
2024/03/05 07:38:45;;;;;;;18.70;9.20;;;;;;;6.68;52.03;100757.81;104242;1254;62194;-58
2024/03/05 07:41:13;;;;;;;15.20;8.60;;;;;;;6.74;52.11;100755.89;108737;1254;62777;-58
2024/03/05 07:43:56;;;;;;;21.20;10.40;;;;;;;6.80;51.98;100752.71;108828;1252;58945;-59
2024/03/05 07:46:24;;;;;;;20.50;9.80;;;;;;;6.87;51.90;100753.02;108732;1253;58665;-58
2024/03/05 07:48:51;;;;;;;19.00;9.20;;;;;;;6.97;51.86;100751.59;108745;1253;65210;-60
2024/03/05 07:51:19;;;;;;;33.70;11.20;;;;;;;7.08;51.70;100749.36;108801;1253;63268;-65
2024/03/05 07:53:56;;;;;;;;;;;;;;;7.16;51.58;100741.23;108684;1253;62528;-70
2024/03/05 07:56:23;;;;;;;20.60;10.70;;;;;;;7.23;51.46;100738.31;105099;1252;60532;-70
2024/03/05 07:58:51;;;;;;;16.70;8.40;;;;;;;7.30;51.20;100739.80;108724;1253;59155;-60
2024/03/05 08:01:19;;;;;;;17.60;9.70;;;;;;;7.35;50.96;100743.38;108731;1251;65186;-61
2024/03/05 08:03:47;;;;;;;19.70;9.00;;;;;;;7.43;50.68;100745.47;108792;1257;60249;-54
2024/03/05 08:06:15;;;;;;;16.50;9.60;;;;;;;7.52;50.47;100743.87;108823;1252;65840;-61
2024/03/05 08:08:43;;;;;;;26.90;20.70;;;;;;;7.63;50.46;100748.13;105385;1253;61055;-60
2024/03/05 08:11:11;;;;;;;16.00;9.60;;;;;;;7.73;50.55;100741.04;104268;1253;61569;-59
2024/03/05 08:13:39;;;;;;;20.50;9.80;;;;;;;7.85;50.40;100738.06;104247;1255;67875;-59
2024/03/05 08:16:08;;;;;;;36.70;22.00;;;;;;;7.95;50.28;100732.86;104343;1253;61568;-59
2024/03/05 08:18:36;;;;;;;20.70;10.80;;;;;;;8.03;50.01;100733.59;104259;1253;62524;-60
2024/03/05 08:21:04;;;;;;;24.50;10.80;;;;;;;8.07;49.79;100733.82;104240;1253;60427;-58
2024/03/05 08:23:31;;;;;;;18.20;10.20;;;;;;;8.12;49.65;100728.46;104204;1254;60460;-58
2024/03/05 08:25:59;;;;;;;30.10;21.60;;;;;;;8.16;49.55;100731.33;104224;1257;63877;-59
2024/03/05 08:28:27;;;;;;;16.20;8.90;;;;;;;8.21;49.56;100731.02;104225;1254;62516;-60
2024/03/05 08:30:54;;;;;;;20.50;9.80;;;;;;;8.25;49.41;100728.33;108733;1253;64703;-59
2024/03/05 08:33:23;;;;;;;20.00;9.70;;;;;;;8.29;49.30;100724.23;108747;1254;58547;-59
2024/03/05 08:35:51;;;;;;;30.90;23.70;;;;;;;8.34;49.41;100721.98;108802;1253;60003;-59
2024/03/05 08:38:19;;;;;;;20.90;9.60;;;;;;;8.44;49.33;100723.11;107957;1253;63712;-60
2024/03/05 08:40:48;;;;;;;24.60;10.90;;;;;;;8.54;49.16;100720.17;104320;1253;60330;-60
2024/03/05 08:43:17;;;;;;;30.70;22.00;;;;;;;8.64;49.22;100723.02;108785;1253;63873;-60
2024/03/05 08:45:44;;;;;;;18.50;10.20;;;;;;;8.77;49.08;100725.29;108751;1253;60179;-60
2024/03/05 08:48:13;;;;;;;21.50;9.80;;;;;;;8.91;48.80;100728.23;107381;1252;60496;-60
2024/03/05 08:50:41;;;;;;;27.30;20.90;;;;;;;9.02;48.60;100727.11;108755;1253;67335;-62
2024/03/05 08:53:09;;;;;;;24.10;12.40;;;;;;;9.14;48.37;100724.75;108733;1253;61512;-61
2024/03/05 08:55:37;;;;;;;32.60;21.50;;;;;;;9.23;48.03;100723.77;108799;1253;62500;-61
2024/03/05 08:58:05;;;;;;;17.90;9.50;;;;;;;9.30;47.80;100727.11;108917;1252;60231;-61
2024/03/05 09:00:33;;;;;;;30.50;21.20;;;;;;;9.37;47.92;100720.69;108710;1251;58963;-62
2024/03/05 09:03:11;;;;;;;16.40;9.90;;;;;;;9.45;47.80;100719.40;108754;1252;63831;-61
2024/03/05 09:05:40;;;;;;;34.30;23.00;;;;;;;9.54;47.54;100721.76;108782;1253;61551;-62
2024/03/05 09:08:12;;;;;;;24.40;13.30;;;;;;;9.64;47.46;100714.60;104519;1253;73604;-60
2024/03/05 09:10:40;;;;;;;28.30;22.50;;;;;;;9.73;47.22;100713.61;104316;1256;60419;-60
2024/03/05 09:13:08;;;;;;;21.20;11.00;;;;;;;9.76;46.85;100713.57;108739;1253;60632;-61
2024/03/05 09:15:36;;;;;;;36.00;23.20;;;;;;;9.79;47.02;100712.13;106528;1253;63701;-60
2024/03/05 09:18:12;;;;;;;18.80;9.90;;;;;;;9.88;47.11;100713.80;104147;1258;60580;-59
2024/03/05 09:20:41;;;;;;;27.30;21.40;;;;;;;9.98;46.96;100709.02;104232;1253;63913;-56
2024/03/05 09:23:09;;;;;;;20.40;10.00;;;;;;;10.09;46.89;100706.67;108781;1252;59021;-55
2024/03/05 09:25:41;;;;;;;32.40;22.00;;;;;;;10.19;46.76;100703.61;108831;1252;59215;-60
2024/03/05 09:28:10;;;;;;;29.10;20.50;;;;;;;10.31;46.64;100704.02;108786;1253;63696;-60
2024/03/05 09:30:39;;;;;;;23.40;11.80;;;;;;;10.40;46.47;100702.16;108882;1253;60533;-60
2024/03/05 09:33:09;;;;;;;26.20;21.00;;;;;;;10.47;46.18;100701.42;106622;1255;64270;-61
2024/03/05 09:35:39;;;;;;;30.90;21.10;;;;;;;10.54;46.10;100704.48;108809;1253;59530;-62
2024/03/05 09:38:07;;;;;;;29.80;21.40;;;;;;;10.58;45.96;100703.95;108855;1252;58785;-60
2024/03/05 09:40:34;;;;;;;29.10;22.80;;;;;;;10.63;45.83;100702.89;108797;1254;65032;-61
2024/03/05 09:43:03;;;;;;;19.60;9.60;;;;;;;10.68;45.87;100699.48;108698;1253;62902;-60
2024/03/05 09:45:36;;;;;;;27.80;22.30;;;;;;;10.77;45.79;100697.97;108666;1254;62528;-61
2024/03/05 09:48:04;;;;;;;28.50;21.60;;;;;;;10.88;45.80;100696.66;108690;1252;59327;-61
2024/03/05 09:50:33;;;;;;;30.60;20.70;;;;;;;10.96;45.61;100693.23;108809;1253;58373;-61
2024/03/05 09:53:01;;;;;;;29.60;21.40;;;;;;;11.03;45.58;100691.99;107023;1253;65001;-60
2024/03/05 09:55:29;;;;;;;19.60;10.90;;;;;;;11.11;45.59;100689.59;104310;1253;64106;-61
2024/03/05 09:57:59;;;;;;;30.00;22.40;;;;;;;11.18;45.37;100687.46;104271;1254;62493;-62
2024/03/05 10:00:27;;;;;;;30.00;21.80;;;;;;;11.21;45.30;100687.29;106905;1253;59445;-60
2024/03/05 10:02:55;;;;;;;28.30;21.00;;;;;;;11.21;45.07;100683.37;104904;1252;60461;-59
2024/03/05 10:05:23;;;;;;;22.00;10.60;;;;;;;11.21;45.13;100682.13;104314;1253;65071;-62
2024/03/05 10:07:51;;;;;;;27.00;20.10;;;;;;;11.25;45.21;100678.16;108767;1253;60259;-60
2024/03/05 10:10:18;;;;;;;30.60;22.20;;;;;;;11.31;45.06;100675.73;108797;1257;71099;-60
2024/03/05 10:12:46;;;;;;;35.20;21.90;;;;;;;11.38;44.81;100671.88;108775;1253;60856;-59
2024/03/05 10:15:23;;;;;;;28.60;20.80;;;;;;;11.43;44.72;100664.47;108803;1253;59032;-60
2024/03/05 10:17:52;;;;;;;29.80;21.80;;;;;;;11.49;44.62;100667.10;108802;1252;67641;-60
2024/03/05 10:20:27;;;;;;;28.40;21.50;;;;;;;11.56;44.57;100665.91;108035;1254;60654;-61
2024/03/05 10:22:57;;;;;;;31.20;20.70;;;;;;;11.64;44.50;100664.01;108710;1254;62735;-58
2024/03/05 10:25:27;;;;;;;28.40;20.00;;;;;;;11.72;44.39;100658.07;108747;1253;58555;-59
2024/03/05 10:27:55;;;;;;;27.70;21.50;;;;;;;11.84;44.25;100656.98;108747;1257;60178;-59
2024/03/05 10:30:33;;;;;;;27.70;20.90;;;;;;;11.96;44.02;100655.66;108810;1253;65022;-60
2024/03/05 10:33:09;;;;;;;29.70;21.70;;;;;;;12.05;43.52;100657.20;108853;1255;62007;-60
2024/03/05 10:35:38;;;;;;;30.30;20.80;;;;;;;12.10;43.33;100655.39;108879;1254;62753;-61
2024/03/05 10:38:14;;;;;;;29.30;20.70;;;;;;;12.14;43.26;100651.20;108839;1253;58992;-61
2024/03/05 10:40:43;;;;;;;28.00;21.00;;;;;;;12.23;43.32;100645.91;108834;1253;59702;-61
2024/03/05 10:43:18;;;;;;;29.30;21.00;;;;;;;12.33;42.95;100644.36;108770;1253;63736;-60
2024/03/05 10:45:46;;;;;;;28.80;20.50;;;;;;;12.38;42.91;100646.59;108818;1254;60310;-60
2024/03/05 10:48:15;;;;;;;27.00;20.20;;;;;;;12.43;42.64;100642.09;108706;1254;63813;-59
2024/03/05 10:50:44;;;;;;;26.70;20.70;;;;;;;12.38;42.34;100638.52;108692;1252;60052;-60
2024/03/05 10:53:12;;;;;;;27.50;20.30;;;;;;;12.35;42.63;100634.38;107341;1254;59578;-61
2024/03/05 10:55:40;;;;;;;27.70;20.20;;;;;;;12.42;42.70;100631.65;108606;1254;64994;-60
2024/03/05 10:58:13;;;;;;;30.40;21.00;;;;;;;12.53;42.58;100631.63;108674;1254;60290;-60
2024/03/05 11:00:43;;;;;;;27.90;19.10;;;;;;;12.65;42.44;100623.59;108330;1257;63805;-60
2024/03/05 11:03:12;;;;;;;26.20;19.00;;;;;;;12.77;42.30;100618.13;108788;1254;58262;-61
2024/03/05 11:05:41;;;;;;;28.20;20.10;;;;;;;12.89;42.10;100619.95;108822;1253;58528;-61
2024/03/05 11:08:15;;;;;;;25.60;20.40;;;;;;;12.96;41.78;100617.77;108824;1254;63883;-61
2024/03/05 11:10:50;;;;;;;27.00;18.90;;;;;;;13.01;41.68;100614.30;108792;1252;61653;-60
2024/03/05 11:13:17;;;;;;;30.00;19.10;;;;;;;13.09;41.63;100612.45;106317;1253;62531;-60
2024/03/05 11:15:45;;;;;;;26.70;19.50;;;;;;;13.15;41.39;100614.10;108776;1253;58568;-60
2024/03/05 11:18:39;;;;;;;30.40;20.50;;;;;;;13.16;41.09;100612.14;108787;1253;62329;-61
2024/03/05 11:21:10;;;;;;;31.00;20.80;;;;;;;13.06;40.91;100610.72;105888;1252;64064;-61
2024/03/05 11:23:42;;;;;;;29.60;21.30;;;;;;;12.91;41.14;100609.89;108827;1254;63785;-61
2024/03/05 11:26:22;;;;;;;26.90;19.40;;;;;;;12.84;41.35;100609.29;108869;1254;62536;-61
2024/03/05 11:28:56;;;;;;;27.80;20.50;;;;;;;12.88;41.63;100611.39;108870;1253;58399;-61